Time;durP1;ratioP1;P1;durP2;ratioP2;P2;SDS_P1;SDS_P2;PMS_P1;PMS_P2;Temp;Humidity;BMP_temperature;BMP_pressure;BME280_temperature;BME280_humidity;BME280_pressure;Samples;Min_cycle;Max_cycle;Signal;HPM_P1;HPM_P2
2023/03/27 00:00:41;;;;;;;8.25;5.38;;;;;;;9.53;100.00;99037.13;6166862;23;20009;-87
2023/03/27 00:03:11;;;;;;;9.10;5.03;;;;;;;9.51;100.00;99026.72;6191452;23;20005;-88
2023/03/27 00:05:36;;;;;;;10.57;5.40;;;;;;;9.54;100.00;99026.38;6218301;23;20039;-86
2023/03/27 00:08:04;;;;;;;10.80;4.95;;;;;;;9.65;100.00;99028.47;6218360;23;20004;-86
2023/03/27 00:10:30;;;;;;;9.48;5.13;;;;;;;9.69;100.00;99029.72;6165111;23;20127;-85
2023/03/27 00:12:57;;;;;;;8.85;5.80;;;;;;;9.57;100.00;99033.91;6217373;23;20128;-85
2023/03/27 00:15:23;;;;;;;8.02;4.85;;;;;;;9.72;100.00;99033.78;6217445;23;20005;-86
2023/03/27 00:17:50;;;;;;;11.15;5.30;;;;;;;9.37;100.00;99030.28;6190869;23;20074;-86
2023/03/27 00:20:21;;;;;;;11.63;5.35;;;;;;;9.45;100.00;99031.94;6217578;23;20005;-86
2023/03/27 00:22:54;;;;;;;12.43;6.65;;;;;;;9.56;100.00;99024.34;6219132;23;20017;-88
2023/03/27 00:25:25;;;;;;;11.48;5.20;;;;;;;9.53;100.00;99026.53;6190950;23;20031;-87
2023/03/27 00:27:53;;;;;;;9.95;5.00;;;;;;;9.62;100.00;99022.72;6217279;23;20035;-87
2023/03/27 00:30:19;;;;;;;7.68;4.75;;;;;;;9.64;100.00;99024.19;6217954;23;20072;-84
2023/03/27 00:32:45;;;;;;;8.48;4.15;;;;;;;9.86;100.00;99024.94;6190789;23;20008;-88
2023/03/27 00:35:12;;;;;;;8.57;4.40;;;;;;;10.01;100.00;99032.78;6191758;23;20012;-87
2023/03/27 00:37:40;;;;;;;6.60;4.28;;;;;;;9.97;100.00;99036.81;6217577;23;20106;-90
2023/03/27 00:40:12;;;;;;;6.40;3.13;;;;;;;10.08;100.00;99042.38;6216118;23;20428;-89
2023/03/27 00:42:37;;;;;;;5.85;3.03;;;;;;;9.96;100.00;99043.13;6217785;23;20005;-85
2023/03/27 00:45:05;;;;;;;6.22;2.70;;;;;;;9.97;100.00;99042.94;6191041;23;20473;-87
2023/03/27 00:47:34;;;;;;;5.75;2.90;;;;;;;10.12;100.00;99056.03;6190187;23;20024;-88
2023/03/27 00:50:05;;;;;;;5.88;3.05;;;;;;;10.11;100.00;99049.13;6190555;23;20017;-85
2023/03/27 00:52:31;;;;;;;5.75;2.70;;;;;;;10.10;100.00;99045.66;6191888;23;20004;-84
2023/03/27 00:55:01;;;;;;;6.78;3.20;;;;;;;10.16;100.00;99052.03;6217709;23;20009;-85
2023/03/27 00:57:28;;;;;;;4.35;2.65;;;;;;;10.16;100.00;99055.50;6218322;23;20016;-87
2023/03/27 00:59:59;;;;;;;4.88;2.70;;;;;;;10.20;100.00;99053.28;6191060;23;20017;-85
2023/03/27 01:02:26;;;;;;;7.40;2.25;;;;;;;10.34;100.00;99055.00;6218008;23;20031;-85
2023/03/27 01:04:53;;;;;;;3.33;2.10;;;;;;;10.19;100.00;99059.59;6217567;23;20063;-86
2023/03/27 01:07:20;;;;;;;5.15;2.78;;;;;;;10.22;100.00;99067.13;6191027;23;20012;-86
2023/03/27 01:09:46;;;;;;;4.80;1.50;;;;;;;10.08;100.00;99075.97;6205497;23;20023;-85
2023/03/27 01:12:50;;;;;;;5.82;2.65;;;;;;;9.79;100.00;99067.22;6207219;23;19992;-86
2023/03/27 01:15:16;;;;;;;4.35;1.70;;;;;;;9.64;100.00;99074.47;6151509;23;20002;-86
2023/03/27 01:18:01;;;;;;;4.07;2.25;;;;;;;9.47;100.00;99078.38;6126254;23;20005;-84
2023/03/27 01:21:05;;;;;;;5.40;2.50;;;;;;;9.26;100.00;99081.84;6101551;23;20128;-87
2023/03/27 01:23:40;;;;;;;5.88;2.58;;;;;;;9.54;100.00;99079.25;6128386;23;20021;-87
2023/03/27 01:26:17;;;;;;;4.75;2.60;;;;;;;9.67;100.00;99076.72;6078633;23;20014;-85
2023/03/27 01:29:27;;;;;;;5.75;3.05;;;;;;;9.62;100.00;99079.09;6107430;23;20014;-85
2023/03/27 01:32:10;;;;;;;5.32;2.38;;;;;;;9.67;100.00;99074.06;6148503;23;20521;-85
2023/03/27 01:34:52;;;;;;;5.15;2.45;;;;;;;9.70;100.00;99071.03;6221584;23;20336;-85
2023/03/27 01:37:52;;;;;;;7.18;2.75;;;;;;;9.61;100.00;99066.88;6169701;23;20013;-86
2023/03/27 01:40:17;;;;;;;6.07;2.47;;;;;;;9.62;100.00;99059.75;6221213;23;20462;-86
2023/03/27 01:42:54;;;;;;;3.40;2.15;;;;;;;9.55;100.00;99064.19;6194298;23;20091;-87
2023/03/27 01:45:41;;;;;;;4.45;2.42;;;;;;;9.68;100.00;99057.16;6193410;23;20019;-88
2023/03/27 01:48:24;;;;;;;3.90;2.60;;;;;;;9.80;100.00;99060.94;6193151;23;20017;-86
2023/03/27 01:50:58;;;;;;;4.50;2.58;;;;;;;9.78;100.00;99065.59;6192133;23;20008;-88
2023/03/27 01:53:29;;;;;;;3.90;2.33;;;;;;;9.63;100.00;99058.75;6219830;23;20051;-89
2023/03/27 01:56:00;;;;;;;4.35;2.20;;;;;;;9.41;100.00;99054.53;6167925;23;20259;-86
2023/03/27 01:58:34;;;;;;;5.47;2.42;;;;;;;9.33;100.00;99055.47;6192097;23;20031;-86
2023/03/27 02:01:02;;;;;;;6.63;2.28;;;;;;;9.07;100.00;99060.50;6192603;23;20017;-85
2023/03/27 02:03:56;;;;;;;5.68;2.45;;;;;;;9.22;100.00;99063.88;6167515;23;20119;-85
2023/03/27 02:06:32;;;;;;;3.63;1.83;;;;;;;9.32;100.00;99057.28;6215317;23;20023;-84
2023/03/27 02:09:43;;;;;;;3.55;1.83;;;;;;;9.42;100.00;99064.88;6218856;23;20020;-86
2023/03/27 02:12:20;;;;;;;4.60;1.92;;;;;;;9.27;100.00;99066.81;6181489;23;20048;-86
2023/03/27 02:14:53;;;;;;;5.13;1.98;;;;;;;9.23;100.00;99060.25;6192302;23;20052;-85
2023/03/27 02:17:24;;;;;;;3.30;1.75;;;;;;;9.19;100.00;99059.81;6167806;23;20024;-85
2023/03/27 02:19:56;;;;;;;4.50;1.90;;;;;;;9.30;100.00;99059.31;6192068;23;20044;-86
2023/03/27 02:22:22;;;;;;;3.20;1.45;;;;;;;9.45;100.00;99063.69;6190634;23;20013;-85
2023/03/27 02:24:54;;;;;;;3.83;1.90;;;;;;;9.44;100.00;99065.53;6189527;23;20023;-85
2023/03/27 02:27:28;;;;;;;4.82;1.50;;;;;;;9.38;100.00;99063.63;6189967;23;20017;-84
2023/03/27 02:30:12;;;;;;;5.50;1.70;;;;;;;9.26;100.00;99065.16;6216291;23;20019;-85
2023/03/27 02:33:07;;;;;;;2.25;1.50;;;;;;;9.40;100.00;99074.84;6189162;23;20137;-86
2023/03/27 02:36:11;;;;;;;3.20;1.10;;;;;;;9.36;100.00;99063.00;6210511;23;20436;-86
2023/03/27 02:38:45;;;;;;;1.73;1.15;;;;;;;9.41;100.00;99060.63;6202386;23;20016;-84
2023/03/27 02:41:24;;;;;;;4.45;1.40;;;;;;;9.43;100.00;99053.31;6207600;23;20020;-85
2023/03/27 02:44:36;;;;;;;3.75;1.10;;;;;;;9.39;100.00;99057.34;6220081;23;20102;-84
2023/03/27 02:47:15;;;;;;;2.17;1.10;;;;;;;9.48;100.00;99064.13;6181061;23;20428;-84
2023/03/27 02:49:53;;;;;;;1.77;0.90;;;;;;;9.46;100.00;99070.63;6189630;23;20017;-84
2023/03/27 02:52:36;;;;;;;1.52;0.90;;;;;;;9.30;100.00;99067.25;6189460;23;20326;-85
2023/03/27 02:55:17;;;;;;;2.35;1.00;;;;;;;9.38;100.00;99058.34;6190594;23;20013;-85
2023/03/27 02:57:48;;;;;;;2.00;0.90;;;;;;;9.26;100.00;99067.78;6189284;23;20012;-85
2023/03/27 03:00:33;;;;;;;1.30;0.90;;;;;;;9.22;100.00;99071.81;6189139;23;20011;-87
2023/03/27 03:03:16;;;;;;;1.92;0.73;;;;;;;8.92;100.00;99072.91;6189524;23;20025;-86
2023/03/27 03:05:43;;;;;;;1.67;0.98;;;;;;;8.76;100.00;99074.78;6188961;23;20061;-86
2023/03/27 03:08:09;;;;;;;1.75;0.80;;;;;;;8.78;100.00;99072.78;6216292;23;20055;-86
2023/03/27 03:10:41;;;;;;;5.68;1.13;;;;;;;8.86;100.00;99078.97;6215776;23;20013;-87
2023/03/27 03:13:07;;;;;;;5.47;1.80;;;;;;;9.10;100.00;99068.03;6189031;23;20012;-87
2023/03/27 03:15:33;;;;;;;3.67;0.70;;;;;;;9.25;100.00;99084.66;6215741;23;20055;-87
2023/03/27 03:17:58;;;;;;;4.55;1.02;;;;;;;9.16;100.00;99091.91;6188793;23;20020;-82
2023/03/27 03:20:28;;;;;;;2.33;0.90;;;;;;;8.96;100.00;99090.88;6215655;23;20401;-83
2023/03/27 03:22:58;;;;;;;3.72;2.28;;;;;;;9.10;100.00;99086.53;6188722;23;20005;-83
2023/03/27 03:25:24;;;;;;;97.85;41.72;;;;;;;9.26;100.00;99086.31;6189937;23;20095;-85
2023/03/27 03:28:00;;;;;;;38.70;17.38;;;;;;;9.29;100.00;99101.78;6216396;23;20036;-86
2023/03/27 03:30:29;;;;;;;53.80;23.75;;;;;;;9.18;100.00;99097.00;6191454;23;20013;-86
2023/03/27 03:33:00;;;;;;;5.93;1.80;;;;;;;9.01;100.00;99103.53;6189524;23;20009;-85
2023/03/27 03:35:26;;;;;;;21.20;7.78;;;;;;;9.08;100.00;99099.13;6189106;23;20062;-85
2023/03/27 03:37:52;;;;;;;11.80;4.50;;;;;;;9.12;100.00;99106.50;6188720;23;20012;-86
2023/03/27 03:40:19;;;;;;;24.83;11.25;;;;;;;9.30;100.00;99106.06;6188845;23;20016;-86
2023/03/27 03:42:51;;;;;;;9.73;3.30;;;;;;;9.24;100.00;99114.75;6188232;23;20059;-83
2023/03/27 03:45:19;;;;;;;9.07;4.65;;;;;;;9.26;100.00;99118.03;6189192;23;20008;-87
2023/03/27 03:47:46;;;;;;;6.30;2.55;;;;;;;9.29;100.00;99112.34;6188596;23;20019;-85
2023/03/27 03:50:12;;;;;;;5.13;1.63;;;;;;;9.09;100.00;99113.97;6215150;23;20013;-84
2023/03/27 03:52:38;;;;;;;10.20;2.17;;;;;;;9.25;100.00;99126.94;6163965;23;20012;-85
2023/03/27 03:55:05;;;;;;;6.60;1.95;;;;;;;9.14;100.00;99132.75;6217743;23;20008;-86
2023/03/27 03:57:31;;;;;;;7.85;2.05;;;;;;;8.98;100.00;99125.03;6188541;23;20015;-85
2023/03/27 04:00:07;;;;;;;10.40;2.15;;;;;;;9.21;100.00;99131.00;6188532;23;20016;-84
2023/03/27 04:02:52;;;;;;;5.78;1.50;;;;;;;9.20;100.00;99129.34;6188634;23;20415;-85
2023/03/27 04:05:19;;;;;;;4.32;2.33;;;;;;;9.12;100.00;99124.16;6188865;23;20020;-86
2023/03/27 04:07:50;;;;;;;3.85;1.73;;;;;;;9.26;100.00;99133.88;6188578;23;20094;-87
2023/03/27 04:10:35;;;;;;;4.95;1.90;;;;;;;9.22;100.00;99137.91;6188777;23;20013;-84
2023/03/27 04:13:05;;;;;;;7.80;2.80;;;;;;;9.06;100.00;99132.84;6188596;23;20021;-86
2023/03/27 04:15:38;;;;;;;9.00;3.00;;;;;;;9.01;100.00;99135.25;6213301;23;20008;-87
2023/03/27 04:18:23;;;;;;;6.95;2.92;;;;;;;9.09;100.00;99137.75;6213301;23;20008;-89
2023/03/27 04:20:48;;;;;;;5.65;2.90;;;;;;;8.90;100.00;99138.34;6188577;23;20021;-85
2023/03/27 04:23:19;;;;;;;6.82;2.85;;;;;;;9.05;100.00;99141.81;6188506;23;20005;-85
2023/03/27 04:25:47;;;;;;;9.15;3.30;;;;;;;9.14;100.00;99148.59;6188373;23;20008;-85
2023/03/27 04:28:20;;;;;;;12.38;3.30;;;;;;;8.98;100.00;99143.53;6188241;23;20040;-84
2023/03/27 04:30:53;;;;;;;12.88;3.70;;;;;;;8.90;100.00;99149.75;6188732;23;20019;-85
2023/03/27 04:33:45;;;;;;;6.70;3.40;;;;;;;8.57;100.00;99157.25;6215789;23;20403;-86
2023/03/27 04:36:19;;;;;;;7.37;2.70;;;;;;;8.39;100.00;99151.50;6215509;23;20021;-84
2023/03/27 04:39:09;;;;;;;8.45;4.10;;;;;;;8.19;100.00;99159.09;6168336;23;20013;-83
2023/03/27 04:41:35;;;;;;;8.57;3.90;;;;;;;8.06;100.00;99166.81;6215107;23;20014;-84
2023/03/27 04:44:00;;;;;;;6.68;3.35;;;;;;;8.12;100.00;99157.38;6188852;23;20047;-86
2023/03/27 04:46:27;;;;;;;11.20;3.92;;;;;;;8.16;100.00;99156.81;6188414;23;20013;-82
2023/03/27 04:48:59;;;;;;;5.63;3.50;;;;;;;8.00;100.00;99166.69;6213756;23;20021;-86
2023/03/27 04:51:47;;;;;;;4.32;3.00;;;;;;;8.09;100.00;99166.44;6214446;23;20099;-86
2023/03/27 04:54:13;;;;;;;5.22;3.10;;;;;;;8.03;100.00;99164.53;6188137;23;20008;-83
2023/03/27 04:56:44;;;;;;;4.80;2.38;;;;;;;8.06;100.00;99158.06;6188018;23;20325;-85
2023/03/27 04:59:09;;;;;;;6.93;2.80;;;;;;;8.14;100.00;99161.47;6188368;23;20017;-87
2023/03/27 05:01:35;;;;;;;8.30;1.90;;;;;;;8.28;100.00;99160.69;6193750;23;20411;-84
2023/03/27 05:04:14;;;;;;;2.63;1.60;;;;;;;8.48;100.00;99163.63;6167533;23;20436;-83
2023/03/27 05:07:01;;;;;;;1.48;1.17;;;;;;;8.80;100.00;99159.78;6214871;23;20471;-83
2023/03/27 05:09:26;;;;;;;4.32;1.98;;;;;;;9.13;98.99;99165.47;6213942;23;20008;-85
2023/03/27 05:11:52;;;;;;;2.88;1.33;;;;;;;9.52;91.59;99171.16;6188835;23;20005;-84
2023/03/27 05:14:19;;;;;;;10.43;1.08;;;;;;;9.74;90.25;99175.44;6215298;23;20009;-86
2023/03/27 05:16:49;;;;;;;5.50;1.10;;;;;;;10.01;86.66;99186.28;6218647;23;20050;-87
2023/03/27 05:19:15;;;;;;;2.30;1.35;;;;;;;10.28;82.60;99188.16;6215582;23;20017;-86
2023/03/27 05:21:48;;;;;;;3.75;1.52;;;;;;;10.55;79.66;99187.31;6190279;23;20005;-87
2023/03/27 05:24:14;;;;;;;3.67;1.02;;;;;;;10.63;79.30;99197.78;6170229;23;20055;-85
2023/03/27 05:26:41;;;;;;;1.17;0.82;;;;;;;10.70;78.32;99197.81;6190241;23;20407;-86
2023/03/27 05:29:07;;;;;;;1.58;0.70;;;;;;;10.76;78.38;99199.69;6217679;23;20088;-86
2023/03/27 05:31:36;;;;;;;1.10;0.80;;;;;;;10.90;77.24;99210.16;6195677;23;20013;-87
2023/03/27 05:34:22;;;;;;;0.75;0.65;;;;;;;11.13;74.23;99209.03;6238975;23;20045;-89
2023/03/27 05:36:50;;;;;;;1.30;0.80;;;;;;;11.22;71.69;99223.75;6210061;23;20448;-90
2023/03/27 05:39:16;;;;;;;4.28;1.00;;;;;;;11.24;68.07;99213.75;6232600;23;20011;-88
2023/03/27 05:41:44;;;;;;;4.38;0.85;;;;;;;11.20;68.19;99225.81;6203696;23;20324;-88
2023/03/27 05:44:10;;;;;;;1.02;0.90;;;;;;;11.17;67.62;99220.91;6178323;23;20012;-88
2023/03/27 05:46:41;;;;;;;1.30;0.68;;;;;;;11.15;68.22;99222.91;6201615;23;20020;-90
2023/03/27 05:49:15;;;;;;;1.95;0.82;;;;;;;11.23;68.56;99225.41;6198399;23;20087;-87
2023/03/27 05:51:44;;;;;;;2.08;0.73;;;;;;;11.19;68.63;99234.78;6225159;23;20373;-86
2023/03/27 05:54:09;;;;;;;2.80;1.00;;;;;;;11.25;68.21;99229.50;6219989;23;20009;-86
2023/03/27 05:56:46;;;;;;;3.40;0.90;;;;;;;12.29;65.33;99230.78;6218415;23;20009;-89
2023/03/27 05:59:12;;;;;;;2.50;0.68;;;;;;;12.63;62.48;99224.38;6191866;23;20039;-89
2023/03/27 06:01:38;;;;;;;0.73;0.55;;;;;;;13.24;58.58;99232.03;6190731;23;20016;-87
2023/03/27 06:04:04;;;;;;;2.50;0.82;;;;;;;13.63;55.43;99247.84;6190000;23;20444;-90
2023/03/27 06:06:45;;;;;;;2.97;0.60;;;;;;;13.70;51.96;99248.63;6188283;23;20109;-88
2023/03/27 06:09:11;;;;;;;1.90;0.60;;;;;;;14.53;51.06;99259.97;6218033;23;20004;-87
2023/03/27 06:11:39;;;;;;;3.40;0.70;;;;;;;14.39;48.22;99269.09;6192926;23;20019;-86
2023/03/27 06:14:05;;;;;;;0.70;0.40;;;;;;;14.51;48.70;99278.03;6193679;23;20103;-88
2023/03/27 06:16:45;;;;;;;1.77;0.65;;;;;;;15.11;48.24;99279.13;6192902;23;20009;-87
2023/03/27 06:19:29;;;;;;;3.35;0.80;;;;;;;15.10;46.06;99282.81;6219674;23;20058;-88
2023/03/27 06:21:55;;;;;;;5.68;0.68;;;;;;;15.18;45.31;99289.72;6194458;23;20016;-87
2023/03/27 06:24:21;;;;;;;1.48;0.60;;;;;;;15.21;44.22;99284.72;6217777;23;20416;-90
2023/03/27 06:26:46;;;;;;;6.43;0.65;;;;;;;15.79;43.32;99286.97;6194005;23;20032;-84
2023/03/27 06:29:15;;;;;;;3.22;0.68;;;;;;;15.74;41.97;99284.94;6169732;23;20063;-90
2023/03/27 06:31:45;;;;;;;3.10;0.90;;;;;;;16.04;41.36;99296.47;6202431;23;20020;-88
2023/03/27 06:37:05;;;;;;;4.32;0.50;;;;;;;15.88;40.19;99285.59;6164601;23;20025;-92
2023/03/27 06:39:37;;;;;;;;;;;;;;;16.19;40.05;99288.03;6183436;23;20013;-85
2023/03/27 06:42:03;;;;;;;2.78;0.50;;;;;;;16.12;40.39;99300.69;6157454;23;19912;-89
2023/03/27 06:44:33;;;;;;;1.75;0.52;;;;;;;16.23;39.96;99299.91;6188168;23;20013;-89
2023/03/27 06:47:34;;;;;;;6.25;0.50;;;;;;;16.57;39.52;99303.75;6127411;23;20108;-88
2023/03/27 06:50:21;;;;;;;6.93;0.80;;;;;;;16.62;38.14;99311.88;6155747;23;20017;-87
2023/03/27 06:52:47;;;;;;;1.08;0.57;;;;;;;16.65;37.79;99308.75;6180205;23;20509;-88
2023/03/27 06:55:33;;;;;;;4.00;0.60;;;;;;;17.00;37.76;99308.78;6158715;23;20499;-86
2023/03/27 06:58:01;;;;;;;3.47;0.73;;;;;;;16.76;36.78;99315.16;6186466;23;20085;-86
2023/03/27 07:00:33;;;;;;;3.25;0.82;;;;;;;16.98;37.07;99313.53;6158599;23;20013;-86
2023/03/27 07:03:18;;;;;;;1.15;0.52;;;;;;;17.73;35.42;99317.06;6158017;23;20536;-87
2023/03/27 07:05:59;;;;;;;4.00;0.60;;;;;;;18.04;34.22;99318.47;6179378;23;20397;-87
2023/03/27 07:08:30;;;;;;;1.42;0.50;;;;;;;18.21;33.27;99329.25;6154803;23;20020;-87
2023/03/27 07:10:59;;;;;;;1.08;0.45;;;;;;;17.92;33.49;99331.94;6180362;23;20338;-92
2023/03/27 07:13:26;;;;;;;6.43;0.50;;;;;;;18.29;33.02;99343.09;6178635;23;20100;-88
2023/03/27 07:15:51;;;;;;;1.05;0.40;;;;;;;19.41;32.08;99340.38;6181547;23;20016;-90
2023/03/27 07:18:20;;;;;;;3.72;0.45;;;;;;;18.66;32.18;99354.22;6155506;23;20005;-89
2023/03/27 07:20:49;;;;;;;1.48;0.60;;;;;;;19.81;30.63;99357.03;6181733;23;20009;-88
2023/03/27 07:23:17;;;;;;;2.30;0.50;;;;;;;18.74;32.09;99358.38;6155346;23;20010;-87
2023/03/27 07:25:51;;;;;;;1.77;0.50;;;;;;;19.04;31.72;99356.19;6179497;23;20010;-89
2023/03/27 07:28:29;;;;;;;6.25;0.40;;;;;;;19.38;30.98;99373.91;6184255;23;20384;-88
2023/03/27 07:30:56;;;;;;;4.70;0.50;;;;;;;19.79;31.34;99367.22;6158936;23;20013;-87
2023/03/27 07:33:21;;;;;;;0.60;0.30;;;;;;;19.86;30.75;99375.91;6179911;23;20009;-86
2023/03/27 07:35:47;;;;;;;2.50;0.50;;;;;;;19.69;30.30;99393.97;6153809;23;20017;-87
2023/03/27 07:38:48;;;;;;;1.77;0.70;;;;;;;19.99;30.25;99397.03;6162013;23;20025;-89
2023/03/27 07:41:19;;;;;;;0.65;0.45;;;;;;;20.52;30.36;99399.03;6156678;23;20025;-86
2023/03/27 07:43:48;;;;;;;6.63;0.50;;;;;;;20.79;29.37;99409.78;6166050;23;20021;-86
2023/03/27 07:46:14;;;;;;;4.22;0.50;;;;;;;19.39;30.91;99409.66;6170729;23;20039;-87
2023/03/27 07:48:42;;;;;;;3.95;0.80;;;;;;;20.33;31.05;99413.91;6190511;23;20053;-87
2023/03/27 07:51:14;;;;;;;2.95;0.40;;;;;;;20.64;30.52;99409.66;6187761;23;20014;-87
2023/03/27 07:53:40;;;;;;;3.17;0.95;;;;;;;21.24;29.65;99416.66;6169811;23;20069;-89
2023/03/27 07:56:13;;;;;;;6.95;1.15;;;;;;;21.01;29.73;99426.66;6186167;23;20009;-91
2023/03/27 07:58:39;;;;;;;0.70;0.30;;;;;;;20.17;30.25;99417.44;6167441;23;20014;-88
2023/03/27 08:01:06;;;;;;;2.40;0.40;;;;;;;20.37;30.57;99427.66;6190575;23;20035;-87
2023/03/27 08:03:33;;;;;;;4.95;0.80;;;;;;;20.65;30.99;99427.41;6165490;23;20017;-89
2023/03/27 08:06:00;;;;;;;3.67;0.60;;;;;;;20.23;31.04;99434.44;6189001;23;20052;-87
2023/03/27 08:08:28;;;;;;;26.48;1.13;;;;;;;19.74;31.50;99431.69;6169115;23;20009;-87
2023/03/27 08:10:56;;;;;;;8.82;0.70;;;;;;;20.10;31.28;99433.78;6185824;23;20020;-85
2023/03/27 08:13:24;;;;;;;0.60;0.25;;;;;;;19.57;32.28;99438.97;6131791;23;20005;-86
2023/03/27 08:15:49;;;;;;;2.65;0.85;;;;;;;19.82;32.49;99443.91;6154013;23;20029;-88
2023/03/27 08:18:20;;;;;;;3.53;0.70;;;;;;;19.08;33.93;99460.22;6179566;23;20451;-87
2023/03/27 08:20:47;;;;;;;1.95;0.50;;;;;;;19.50;33.64;99457.94;6153199;23;20021;-86
2023/03/27 08:23:13;;;;;;;3.28;0.50;;;;;;;19.53;34.45;99451.25;6178431;23;20014;-86
2023/03/27 08:25:49;;;;;;;4.63;0.40;;;;;;;19.93;32.80;99454.53;6154414;23;20017;-86
2023/03/27 08:28:14;;;;;;;3.13;0.85;;;;;;;19.65;33.35;99457.38;6198383;23;20017;-88
2023/03/27 08:30:40;;;;;;;1.25;0.28;;;;;;;20.30;32.67;99462.03;6202535;23;20086;-88
2023/03/27 08:33:08;;;;;;;2.70;0.60;;;;;;;20.23;33.86;99458.66;6190961;23;20014;-89
2023/03/27 08:35:34;;;;;;;2.47;0.30;;;;;;;20.10;33.15;99473.31;6178513;23;20009;-87
2023/03/27 08:38:01;;;;;;;0.55;0.20;;;;;;;19.95;32.17;99481.19;6183404;23;20020;-85
2023/03/27 08:40:51;;;;;;;4.25;0.60;;;;;;;19.94;31.77;99466.94;6155045;23;20027;-83
2023/03/27 08:43:44;;;;;;;2.40;0.30;;;;;;;20.28;32.18;99475.75;6154211;23;20016;-87
2023/03/27 08:46:27;;;;;;;0.70;0.25;;;;;;;20.74;31.90;99479.75;6155833;23;20017;-85
2023/03/27 08:49:13;;;;;;;1.50;0.45;;;;;;;20.39;31.17;99477.47;6153702;23;20438;-85
2023/03/27 08:51:51;;;;;;;1.02;0.50;;;;;;;20.12;32.14;99472.00;6179118;23;20433;-87
2023/03/27 08:54:29;;;;;;;10.00;0.43;;;;;;;20.51;30.37;99480.03;6154625;23;20017;-85
2023/03/27 08:56:55;;;;;;;7.70;0.68;;;;;;;20.36;30.77;99474.47;6178753;23;20110;-84
2023/03/27 08:59:26;;;;;;;5.30;0.45;;;;;;;20.82;30.45;99487.38;6179350;23;20009;-88
2023/03/27 09:02:10;;;;;;;4.05;0.45;;;;;;;21.09;30.57;99498.16;6180040;23;20481;-86
2023/03/27 09:04:47;;;;;;;7.75;0.73;;;;;;;21.00;30.14;99492.41;6178552;23;20445;-85
2023/03/27 09:07:39;;;;;;;3.85;0.75;;;;;;;21.03;30.17;99500.00;6177564;23;20025;-85
2023/03/27 09:10:43;;;;;;;3.83;0.52;;;;;;;21.38;30.06;99506.78;6156873;23;20455;-86
2023/03/27 09:13:40;;;;;;;5.72;0.60;;;;;;;21.09;30.44;99512.47;6154834;23;20046;-84
2023/03/27 09:16:14;;;;;;;3.45;0.40;;;;;;;21.10;30.29;99516.78;6178598;23;20018;-84
2023/03/27 09:19:05;;;;;;;0.82;0.30;;;;;;;21.98;29.15;99528.84;6177467;23;20024;-87
2023/03/27 09:21:59;;;;;;;2.00;0.50;;;;;;;21.83;29.54;99526.03;6179727;23;20024;-83
2023/03/27 09:24:56;;;;;;;1.55;0.40;;;;;;;21.54;29.27;99527.44;6158120;23;20017;-86
2023/03/27 09:27:48;;;;;;;7.75;1.25;;;;;;;21.28;29.36;99525.59;6161992;23;20030;-83
2023/03/27 09:30:33;;;;;;;6.68;0.70;;;;;;;21.31;29.21;99528.56;6155586;23;20014;-84
2023/03/27 09:33:07;;;;;;;;;;;;;;;21.28;29.24;99528.28;6182361;23;20108;-84
2023/03/27 09:35:37;;;;;;;2.10;0.50;;;;;;;21.62;28.46;99521.53;6180801;23;19920;-85
2023/03/27 09:38:32;;;;;;;6.63;0.70;;;;;;;22.17;27.85;99543.53;6155515;23;20021;-88
2023/03/27 09:41:05;;;;;;;3.85;0.65;;;;;;;22.28;28.41;99551.69;6131259;23;20025;-84
2023/03/27 09:43:53;;;;;;;6.95;0.60;;;;;;;21.74;30.39;99543.78;6182370;23;20022;-84
2023/03/27 09:46:22;;;;;;;4.57;0.50;;;;;;;21.14;30.18;99544.03;6183057;23;20093;-83
2023/03/27 09:49:20;;;;;;;7.93;0.77;;;;;;;21.43;29.68;99556.19;6183026;23;20041;-84
2023/03/27 09:51:51;;;;;;;2.55;0.50;;;;;;;21.90;29.55;99550.94;6157255;23;20018;-85
2023/03/27 09:54:52;;;;;;;6.67;0.57;;;;;;;22.31;29.11;99567.34;6158367;23;20020;-83
2023/03/27 09:57:20;;;;;;;1.63;0.40;;;;;;;22.48;29.34;99559.88;6132092;23;20009;-85
2023/03/27 10:00:25;;;;;;;1.00;0.55;;;;;;;22.07;29.65;99558.88;6182312;23;20349;-85
2023/03/27 10:03:06;;;;;;;2.92;0.52;;;;;;;22.42;29.91;99556.34;6158397;23;20018;-86
2023/03/27 10:05:34;;;;;;;2.35;0.55;;;;;;;23.25;29.32;99553.66;6134706;23;20294;-83
2023/03/27 10:08:26;;;;;;;3.35;0.45;;;;;;;22.79;28.51;99561.69;6182182;23;20021;-84
2023/03/27 10:11:23;;;;;;;4.20;0.70;;;;;;;22.67;28.46;99569.16;6161179;23;20404;-87
2023/03/27 10:13:54;;;;;;;2.88;0.52;;;;;;;23.42;28.96;99549.69;6165850;23;20014;-86
2023/03/27 10:16:24;;;;;;;8.02;0.60;;;;;;;22.88;29.33;99562.78;6182523;23;20370;-84
2023/03/27 10:19:03;;;;;;;7.15;0.60;;;;;;;23.96;28.06;99566.16;6181912;23;20014;-86
2023/03/27 10:21:38;;;;;;;;;;;;;;;23.80;28.90;99569.94;6188218;23;20012;-87
2023/03/27 10:24:29;;;;;;;5.10;0.70;;;;;;;23.65;29.45;99575.38;6164596;23;19916;-87
2023/03/27 10:27:32;;;;;;;2.45;0.85;;;;;;;23.15;28.83;99587.72;6160942;23;20017;-88
2023/03/27 10:30:29;;;;;;;2.78;0.68;;;;;;;22.46;29.51;99579.06;6150572;23;20025;-90
2023/03/27 10:33:09;;;;;;;4.15;0.57;;;;;;;22.45;29.37;99590.09;6160712;23;20036;-87
2023/03/27 10:35:50;;;;;;;3.72;0.45;;;;;;;22.23;29.46;99578.66;6160073;23;20017;-90
2023/03/27 10:38:22;;;;;;;4.95;0.60;;;;;;;22.90;27.96;99578.75;6190707;23;20017;-89
2023/03/27 10:40:51;;;;;;;2.70;0.60;;;;;;;23.10;28.78;99581.50;6186811;23;20017;-90
2023/03/27 10:43:40;;;;;;;3.20;0.73;;;;;;;22.63;28.88;99578.88;6166455;23;20013;-90
2023/03/27 10:46:13;;;;;;;1.55;0.50;;;;;;;23.05;28.96;99584.19;6185120;23;20053;-90
2023/03/27 10:48:51;;;;;;;3.33;0.93;;;;;;;23.28;28.76;99590.97;6183090;23;20017;-89
2023/03/27 10:51:22;;;;;;;;;;;;;;;24.64;27.48;99582.81;6157920;23;20020;-89
2023/03/27 10:54:00;;;;;;;39.87;2.37;;;;;;;23.32;28.10;99582.09;6156237;23;20284;-89
2023/03/27 10:56:51;;;;;;;19.27;2.03;;;;;;;24.27;27.53;99572.34;6137744;23;20017;-89
2023/03/27 10:59:30;;;;;;;67.15;4.63;;;;;;;23.81;26.96;99590.53;6162988;23;20073;-87
2023/03/27 11:02:03;;;;;;;36.75;1.85;;;;;;;23.85;27.59;99586.19;6162945;23;20072;-90
2023/03/27 11:04:48;;;;;;;74.03;4.15;;;;;;;23.67;26.90;99592.16;6165562;23;20022;-90
2023/03/27 11:07:27;;;;;;;15.88;0.90;;;;;;;24.11;26.90;99604.03;6160105;23;20017;-91
2023/03/27 11:10:00;;;;;;;34.60;1.98;;;;;;;24.64;24.49;99604.50;6188205;23;20088;-89
2023/03/27 11:12:33;;;;;;;28.77;1.85;;;;;;;24.77;22.29;99603.91;6184946;23;20017;-91
2023/03/27 11:15:21;;;;;;;12.18;0.60;;;;;;;25.15;21.81;99610.53;6169464;23;20009;-91
2023/03/27 11:18:10;;;;;;;3.30;0.38;;;;;;;25.11;23.76;99606.75;6171644;23;20102;-91
2023/03/27 11:20:51;;;;;;;2.65;0.57;;;;;;;25.14;23.21;99607.00;6166996;23;20029;-91
2023/03/27 11:23:59;;;;;;;3.00;0.47;;;;;;;24.94;22.50;99604.41;6192510;23;20009;-87
2023/03/27 11:26:43;;;;;;;6.45;0.57;;;;;;;25.36;21.95;99613.91;6193617;23;20013;-88
2023/03/27 11:29:19;;;;;;;9.98;1.20;;;;;;;25.43;22.34;99607.09;6165760;23;20017;-91
2023/03/27 11:31:55;;;;;;;;;;;;;;;24.65;20.78;99622.38;6160473;23;20009;-89
2023/03/27 11:34:56;;;;;;;1.17;0.70;;;;;;;24.32;21.48;99617.59;6179121;23;19916;-87
2023/03/27 11:38:02;;;;;;;3.28;0.57;;;;;;;25.69;20.51;99624.03;6159116;23;20349;-87
2023/03/27 11:40:46;;;;;;;3.95;0.60;;;;;;;25.05;20.85;99616.84;6158573;23;20010;-90
2023/03/27 11:43:14;;;;;;;3.05;0.40;;;;;;;24.58;22.17;99616.44;6133752;23;20036;-88
2023/03/27 11:45:56;;;;;;;8.52;0.40;;;;;;;24.50;20.21;99625.13;6159746;23;20013;-86
2023/03/27 11:48:45;;;;;;;6.90;0.30;;;;;;;25.45;20.49;99623.13;6187969;23;20444;-87
2023/03/27 11:51:35;;;;;;;12.45;0.75;;;;;;;25.04;20.28;99628.75;6182261;23;20020;-86
2023/03/27 11:54:29;;;;;;;3.72;0.17;;;;;;;24.77;19.65;99620.16;6157890;23;20104;-89
2023/03/27 11:57:08;;;;;;;7.18;0.22;;;;;;;26.28;18.56;99636.63;6184586;23;20066;-91
2023/03/27 12:00:04;;;;;;;5.00;0.30;;;;;;;25.35;18.60;99642.97;6159042;23;20024;-92
2023/03/27 12:03:17;;;;;;;2.75;0.30;;;;;;;22.71;20.77;99645.91;6185859;23;20001;-90
2023/03/27 12:06:04;;;;;;;17.70;0.70;;;;;;;21.35;23.61;99629.41;6131177;23;20017;-87
2023/03/27 12:08:55;;;;;;;2.22;0.63;;;;;;;20.50;24.76;99648.00;6183643;23;20026;-92
2023/03/27 12:11:25;;;;;;;1.90;0.35;;;;;;;19.97;22.73;99635.88;6167321;23;20020;-91
2023/03/27 12:14:29;;;;;;;2.53;0.30;;;;;;;19.96;23.81;99626.16;6167881;23;20013;-92
2023/03/27 12:17:14;;;;;;;3.67;0.50;;;;;;;19.53;24.95;99644.78;6173242;22;20020;-93